Radcliffe, Iowa
Current Conditions -  °F | °C
As of 5:55 AM on Saturday 25 Oct 2014 (Local Time) from KIFA Reporting Station
Clear Clear  
Wind Chill: 45°   Ceiling: Unl
Heat Index: 47°   Visibility: 10mi
Dew Point: 42°   Wind: 5mph
Humidity: 83%   Direction: 310°NW
Pressure: 30.03"   Gusts: NA
Location:  42.32°N, 93.43°W
Report Text: KIFA 251055Z AUTO 31004KT 10SM CLR 09/06 A3003 RMK AO2 T00850057
Loading
Personal Weather Stations






























Interactive Weather Map
Tropical Storm Tracking
New forecast layout! Learn more

10-Day Weather Forecast

Advertisements
Track Severe Weather on mobile